CheckWX is a tool to help pilots better visualize weather data.  It is not intended as a substitute for an official pre-flight weather briefing.

14:16:04 UTC

KLWB METAR
Greenbrier Valley Airport
Lewisburg, West Virginia, USA
Current

21 mins ago

KLWB 221355Z AUTO 00000KT 10SM CLR 10/04 A3025 RMK AO2 T01020041
Observed
Apr-22 @ 13:55 UTC
Visibility
10 SM
Flight Rules
VFR
Cloud Levels
  • Clear skies
Temperature
10°C / 50°F
Dewpoint
C / 39°F
Humidity
67%
Altimeter
30.25" Hg
Pressure
1024.42 hPa
Previous

41 mins ago

KLWB 221335Z AUTO 00000KT 10SM SCT022 09/04 A3024 RMK AO2 T00940038
Observed
Apr-22 @ 13:35 UTC
Visibility
10 SM
Flight Rules
VFR
Cloud Levels
  • Scattered at 2,200' AGL
Temperature
C / 48°F
Dewpoint
C / 39°F
Humidity
71%
Altimeter
30.24" Hg
Pressure
1024.02 hPa
Previous

1 hour ago

KLWB 221315Z AUTO 01005KT 10SM SCT022 09/04 A3025 RMK AO2 T00940039
Observed
Apr-22 @ 13:15 UTC
Wind
  • 010° at 5 KTS
Visibility
10 SM
Flight Rules
VFR
Cloud Levels
  • Scattered at 2,200' AGL
Temperature
C / 48°F
Dewpoint
C / 39°F
Humidity
71%
Altimeter
30.25" Hg
Pressure
1024.42 hPa